Time;durP1;ratioP1;P1;durP2;ratioP2;P2;SDS_P1;SDS_P2;PMS_P1;PMS_P2;Temp;Humidity;BMP_temperature;BMP_pressure;BME280_temperature;BME280_humidity;BME280_pressure;Samples;Min_cycle;Max_cycle;Signal;HPM_P1;HPM_P2
2023/06/11 07:47:00;;;;;;;5.55;5.05;;;21.10;64.20;;;;;;5857555;23;21722;-88
2023/06/11 07:49:27;;;;;;;7.18;5.10;;;21.10;62.40;;;;;;4975304;28;20204;-88
2023/06/11 07:51:54;;;;;;;5.45;5.00;;;21.30;55.30;;;;;;4978287;28;20197;-83
2023/06/11 08:01:14;;;;;;;5.65;4.95;;;21.80;49.00;;;;;;4962151;28;20209;-87
2023/06/11 08:03:43;;;;;;;5.97;5.10;;;22.00;48.70;;;;;;5002728;28;20212;-89
2023/06/11 08:06:10;;;;;;;5.80;5.22;;;22.10;48.70;;;;;;4967944;28;20205;-90
2023/06/11 08:08:37;;;;;;;7.03;5.18;;;22.00;49.10;;;;;;4963868;28;20295;-85
2023/06/11 08:11:04;;;;;;;5.93;5.32;;;22.30;45.30;;;;;;5004397;28;20204;-89
2023/06/11 08:13:32;;;;;;;5.25;4.75;;;22.40;46.20;;;;;;4971438;28;20227;-85
2023/06/11 08:15:59;;;;;;;5.32;4.68;;;22.50;40.00;;;;;;4974495;28;20200;-82
2023/06/11 08:18:26;;;;;;;7.85;5.25;;;23.00;39.60;;;;;;4981739;28;20703;-86
2023/06/11 08:20:55;;;;;;;4.97;4.57;;;24.00;34.10;;;;;;4970774;28;20200;-87
2023/06/11 08:23:22;;;;;;;5.40;4.90;;;25.60;28.20;;;;;;4988823;28;20221;-86
2023/06/11 08:25:49;;;;;;;6.30;4.70;;;26.40;23.20;;;;;;4986659;28;20206;-88
2023/06/11 08:28:16;;;;;;;5.45;4.40;;;26.40;22.30;;;;;;4959109;28;20222;-90
2023/06/11 08:30:43;;;;;;;5.20;4.40;;;26.10;21.00;;;;;;4966797;28;20209;-88
2023/06/11 08:33:10;;;;;;;4.70;4.28;;;26.40;21.50;;;;;;4988747;28;20668;-90
2023/06/11 08:35:37;;;;;;;5.50;4.70;;;27.20;18.60;;;;;;4992482;28;20286;-89
2023/06/11 08:38:05;;;;;;;5.47;4.47;;;27.60;17.10;;;;;;4993792;28;20249;-90
2023/06/11 08:40:39;;;;;;;5.10;4.60;;;26.80;18.30;;;;;;4960098;28;20218;-87
2023/06/11 08:43:06;;;;;;;5.63;4.75;;;25.40;21.50;;;;;;4991177;28;20285;-87
2023/06/11 08:45:33;;;;;;;5.43;4.93;;;24.60;25.00;;;;;;4986434;28;20203;-88
2023/06/11 08:48:03;;;;;;;5.72;4.50;;;24.60;25.30;;;;;;4994407;28;20211;-88
2023/06/11 08:50:31;;;;;;;4.97;4.30;;;25.60;23.50;;;;;;4988114;28;20644;-83
2023/06/11 08:53:00;;;;;;;4.70;4.30;;;27.00;19.90;;;;;;4983136;28;20207;-85
2023/06/11 08:55:29;;;;;;;4.50;4.10;;;28.40;15.80;;;;;;4988530;28;20200;-85
2023/06/11 08:57:56;;;;;;;4.40;4.10;;;28.40;15.90;;;;;;4986049;28;20192;-85
2023/06/11 09:00:23;;;;;;;4.63;4.22;;;28.70;16.00;;;;;;4992972;28;20661;-91
2023/06/11 09:02:51;;;;;;;5.38;4.05;;;29.10;16.20;;;;;;4995769;28;20210;-89
2023/06/11 09:05:18;;;;;;;4.50;4.10;;;29.40;15.90;;;;;;4966377;28;20632;-87
2023/06/11 09:07:49;;;;;;;4.50;4.20;;;29.90;13.40;;;;;;4992680;28;20290;-87
2023/06/11 09:10:16;;;;;;;5.82;4.10;;;29.90;13.50;;;;;;4988206;28;20203;-85
2023/06/11 09:12:45;;;;;;;4.88;4.50;;;30.60;12.50;;;;;;4989706;28;20283;-85
2023/06/11 09:15:13;;;;;;;5.55;4.70;;;31.30;10.90;;;;;;4991149;28;20196;-88
2023/06/11 09:17:41;;;;;;;7.78;4.57;;;31.40;9.50;;;;;;4968424;28;20216;-87
2023/06/11 09:20:11;;;;;;;5.32;4.82;;;31.80;9.70;;;;;;4985809;28;20343;-87
2023/06/11 09:22:39;;;;;;;4.95;4.47;;;30.90;10.40;;;;;;4987507;28;20656;-87
2023/06/11 09:25:08;;;;;;;5.70;4.72;;;30.80;11.00;;;;;;4974276;28;20211;-85
2023/06/11 09:27:36;;;;;;;6.13;4.60;;;30.80;10.20;;;;;;4984484;28;20660;-86
2023/06/11 09:30:12;;;;;;;5.20;4.80;;;31.00;10.10;;;;;;4985631;28;20286;-82
2023/06/11 09:32:39;;;;;;;4.85;4.38;;;30.60;10.10;;;;;;4984238;28;20566;-85
2023/06/11 09:35:08;;;;;;;5.25;4.18;;;30.40;10.40;;;;;;4989528;28;20200;-85
2023/06/11 09:37:46;;;;;;;5.10;4.70;;;29.80;11.00;;;;;;4989423;28;20207;-88
2023/06/11 09:40:16;;;;;;;7.53;4.40;;;30.10;11.10;;;;;;4990407;28;20211;-89
2023/06/11 09:48:20;;;;;;;5.28;4.85;;;30.30;11.80;;;;;;4993612;28;20211;-89
2023/06/11 09:51:07;;;;;;;4.95;4.53;;;30.80;11.10;;;;;;4987674;28;20200;-90
2023/06/11 09:53:34;;;;;;;4.60;4.20;;;31.00;11.10;;;;;;4961030;28;20196;-94
2023/06/11 09:56:02;;;;;;;4.80;4.40;;;30.30;10.60;;;;;;4985585;28;20200;-87
2023/06/11 09:58:31;;;;;;;7.82;4.40;;;30.80;8.80;;;;;;4973353;28;20195;-87
2023/06/11 10:03:41;;;;;;;4.80;4.40;;;31.30;8.60;;;;;;4981396;28;20204;-89
2023/06/11 10:06:14;;;;;;;4.15;3.85;;;31.30;9.50;;;;;;4983847;28;20282;-91
2023/06/11 10:08:41;;;;;;;4.88;4.57;;;30.70;9.60;;;;;;4996287;28;20199;-89
2023/06/11 10:11:09;;;;;;;5.00;4.60;;;30.30;10.70;;;;;;4969857;28;20208;-90
2023/06/11 10:13:37;;;;;;;4.45;4.10;;;29.10;11.80;;;;;;4996322;28;20195;-90
2023/06/11 10:16:10;;;;;;;4.93;4.18;;;28.00;14.40;;;;;;4983761;28;20207;-88
2023/06/11 10:18:47;;;;;;;4.15;3.85;;;27.70;14.70;;;;;;5044586;23;20250;-89
2023/06/11 10:21:14;;;;;;;4.88;4.38;;;27.90;14.00;;;;;;4992797;28;20672;-88
2023/06/11 10:23:42;;;;;;;4.07;3.78;;;28.00;13.30;;;;;;4995608;28;20231;-89
2023/06/11 10:26:10;;;;;;;4.10;3.80;;;27.70;14.60;;;;;;4997343;28;20256;-87
2023/06/11 10:28:38;;;;;;;4.93;3.80;;;27.70;14.00;;;;;;4998356;28;20234;-88
2023/06/11 10:33:52;;;;;;;4.30;4.00;;;28.20;12.80;;;;;;4978517;28;20537;-89
2023/06/11 10:36:47;;;;;;;4.13;3.75;;;29.70;10.60;;;;;;4997617;28;20203;-89
2023/06/11 10:39:27;;;;;;;3.88;3.58;;;30.00;9.70;;;;;;4997770;28;20212;-88
2023/06/11 10:42:00;;;;;;;7.95;6.28;;;29.90;11.50;;;;;;4983993;28;20215;-88
2023/06/11 10:44:29;;;;;;;7.05;6.55;;;29.60;11.30;;;;;;4982048;28;20584;-89
2023/06/11 10:53:58;;;;;;;5.28;4.78;;;30.00;9.80;;;;;;4991568;28;20648;-87
2023/06/11 10:56:26;;;;;;;5.65;4.15;;;29.80;9.70;;;;;;4996332;28;20282;-88
2023/06/11 11:02:04;;;;;;;4.07;3.78;;;29.70;9.80;;;;;;4975442;28;20299;-89
2023/06/11 11:08:02;;;;;;;3.90;3.50;;;28.20;12.30;;;;;;4992411;28;20174;-89
2023/06/11 11:11:20;;;;;;;6.28;3.65;;;27.70;13.10;;;;;;4991146;28;20208;-86
2023/06/11 11:13:50;;;;;;;5.05;3.17;;;27.20;14.30;;;;;;4997770;28;20267;-88
2023/06/11 11:24:23;;;;;;;3.50;3.20;;;26.20;14.70;;;;;;5509821;23;20579;-88
2023/06/11 11:26:50;;;;;;;4.13;3.75;;;25.60;15.20;;;;;;4998467;28;20207;-86
2023/06/11 11:29:19;;;;;;;3.80;3.40;;;25.50;15.50;;;;;;4997887;28;20196;-87
2023/06/11 11:32:10;;;;;;;5.22;3.72;;;25.50;15.90;;;;;;4997126;28;20203;-87
2023/06/11 11:34:40;;;;;;;5.50;3.75;;;25.60;15.10;;;;;;4980252;28;20226;-85
2023/06/11 11:37:36;;;;;;;3.80;3.50;;;25.60;18.20;;;;;;4957245;29;20206;-85
2023/06/11 11:42:52;;;;;;;3.80;3.30;;;26.10;14.70;;;;;;4979546;28;20687;-87
2023/06/11 11:48:04;;;;;;;6.97;3.67;;;25.40;15.60;;;;;;4994195;28;20208;-88
2023/06/11 11:50:33;;;;;;;3.85;3.55;;;25.50;16.50;;;;;;4996901;28;20228;-88
2023/06/11 11:55:44;;;;;;;4.13;3.72;;;25.00;15.90;;;;;;4995450;28;20204;-88
2023/06/11 11:58:12;;;;;;;4.25;3.83;;;24.90;18.60;;;;;;4979652;28;20266;-86
2023/06/11 12:00:48;;;;;;;5.00;3.65;;;25.20;16.50;;;;;;4996931;28;20250;-83
2023/06/11 12:03:18;;;;;;;4.18;3.78;;;25.50;15.20;;;;;;4999104;28;20279;-85
2023/06/11 12:05:55;;;;;;;3.90;3.60;;;25.60;15.60;;;;;;4983870;28;20200;-85
2023/06/11 12:08:22;;;;;;;5.43;3.40;;;25.60;15.30;;;;;;4996226;28;20587;-86
2023/06/11 12:10:49;;;;;;;4.03;3.63;;;25.80;14.60;;;;;;4989281;28;20664;-88
2023/06/11 12:13:18;;;;;;;5.43;3.70;;;25.30;15.60;;;;;;4992867;28;20207;-84
2023/06/11 12:15:46;;;;;;;4.32;3.92;;;25.10;16.90;;;;;;4973389;28;20208;-84
2023/06/11 12:18:13;;;;;;;4.05;3.47;;;25.30;16.00;;;;;;4992604;28;20215;-86
2023/06/11 12:20:40;;;;;;;5.75;3.70;;;25.60;14.50;;;;;;4974824;28;20224;-82
2023/06/11 12:23:07;;;;;;;3.67;3.38;;;25.60;14.40;;;;;;4989950;28;20206;-89
2023/06/11 12:25:35;;;;;;;3.83;3.53;;;25.80;14.50;;;;;;4995735;28;20210;-88
2023/06/11 12:28:02;;;;;;;3.58;3.28;;;25.90;14.60;;;;;;4991226;28;20288;-86
2023/06/11 12:30:31;;;;;;;4.05;3.50;;;26.00;14.40;;;;;;4988945;28;20201;-86
2023/06/11 12:33:02;;;;;;;4.32;3.53;;;25.90;13.40;;;;;;4989087;28;20206;-83
2023/06/11 12:35:30;;;;;;;4.05;3.63;;;26.00;14.60;;;;;;4978512;28;20235;-86
2023/06/11 12:37:57;;;;;;;3.55;3.25;;;26.00;13.30;;;;;;4969656;28;20675;-88
2023/06/11 12:40:24;;;;;;;4.47;3.67;;;26.00;13.30;;;;;;4989018;28;20220;-89
2023/06/11 12:42:56;;;;;;;7.38;3.80;;;25.90;13.20;;;;;;4974200;28;20212;-88
2023/06/11 12:45:23;;;;;;;4.53;3.60;;;25.70;13.00;;;;;;4992136;28;20195;-88
2023/06/11 12:47:50;;;;;;;3.67;3.38;;;25.80;14.60;;;;;;4994305;28;20330;-92
2023/06/11 12:50:19;;;;;;;3.85;3.45;;;25.80;13.20;;;;;;4998255;28;20207;-89
2023/06/11 12:52:46;;;;;;;3.60;3.30;;;26.00;13.40;;;;;;4984518;28;20238;-88
2023/06/11 12:55:39;;;;;;;5.78;3.53;;;26.20;13.30;;;;;;4962439;28;20221;-89
2023/06/11 12:58:06;;;;;;;4.82;3.55;;;26.20;13.10;;;;;;4990712;28;20224;-89
2023/06/11 13:00:33;;;;;;;4.70;3.03;;;26.00;11.40;;;;;;4996394;28;20351;-86
2023/06/11 13:03:00;;;;;;;3.88;3.30;;;26.00;11.60;;;;;;4973671;28;20212;-88
2023/06/11 13:08:10;;;;;;;4.35;3.92;;;25.90;11.70;;;;;;4979132;28;20192;-91
2023/06/11 13:10:45;;;;;;;4.78;3.40;;;25.90;13.60;;;;;;5003720;28;20188;-91
2023/06/11 13:13:12;;;;;;;3.88;3.58;;;25.90;13.10;;;;;;4982722;28;20203;-86
2023/06/11 13:15:43;;;;;;;3.50;3.20;;;25.90;11.00;;;;;;5000879;28;20290;-88
2023/06/11 13:22:14;;;;;;;3.40;3.10;;;25.80;12.50;;;;;;4988414;28;20199;-90
2023/06/11 13:59:19;;;;;;;4.03;3.38;;;25.10;11.60;;;;;;5015844;28;20680;-90
2023/06/11 14:01:46;;;;;;;4.35;4.00;;;25.20;10.70;;;;;;4996044;28;20196;-89
2023/06/11 17:17:34;;;;;;;7.75;6.63;;;23.60;15.00;;;;;;5694449;23;21168;-91
2023/06/11 17:38:59;;;;;;;3.97;3.38;;;23.00;14.70;;;;;;5019474;28;20192;-92
2023/06/11 17:44:21;;;;;;;4.55;4.15;;;23.00;15.10;;;;;;4970776;28;20205;-88
2023/06/11 17:46:50;;;;;;;4.53;3.42;;;22.90;15.80;;;;;;4975375;28;20201;-90
2023/06/11 17:49:37;;;;;;;3.88;3.25;;;22.80;16.00;;;;;;5013651;28;20214;-89
2023/06/11 17:55:12;;;;;;;4.18;3.78;;;22.80;16.00;;;;;;5004453;28;20207;-91
2023/06/11 17:57:39;;;;;;;3.85;3.40;;;22.70;16.70;;;;;;5012155;28;20196;-91
2023/06/11 18:10:44;;;;;;;3.88;3.47;;;22.60;15.90;;;;;;5536282;23;20341;-90
2023/06/11 18:13:11;;;;;;;4.47;3.65;;;22.60;15.60;;;;;;5017545;28;20194;-92
2023/06/11 18:15:38;;;;;;;4.03;3.67;;;22.60;16.10;;;;;;5012378;28;20195;-90
2023/06/11 18:18:05;;;;;;;4.35;3.47;;;22.50;15.50;;;;;;5026877;28;20216;-90
2023/06/11 18:20:33;;;;;;;5.07;3.83;;;22.50;15.50;;;;;;5008748;28;20216;-90
2023/06/11 18:23:01;;;;;;;4.00;3.70;;;22.40;16.40;;;;;;4992195;28;20196;-90
2023/06/11 20:09:30;;;;;;;15.95;14.35;;;19.30;31.40;;;;;;6158189;23;20194;-89
